ADDS METAR Data INFO
IDs: Format: Raw Decoded Include TAF

Data at: 0838 UTC 21 Oct 2017

KJKA 210815Z AUTO 07006KT 10SM CLR 21/20 A3006 RMK AO2 T02080200
KJKA 210755Z AUTO 06004KT 10SM CLR 21/20 A3007 RMK AO2 T02070195
KJKA 210735Z AUTO 05004KT 10SM CLR 21/19 A3007 RMK AO2 T02050190
KJKA 210715Z AUTO 06005KT 10SM CLR 21/18 A3008 RMK AO2 T02070184
KJKA 210655Z AUTO 05004KT 10SM CLR 21/18 A3008 RMK AO2 T02070178
KJKA 210635Z AUTO 07006KT 10SM CLR 21/18 A3008 RMK AO2 T02060176
KJKA 210615Z AUTO 07006KT 10SM CLR 21/17 A3008 RMK AO2 T02050172
KJKA 210555Z AUTO 06004KT 10SM CLR 20/17 A3009 RMK AO2 T02040172 10226 20195
KJKA 210535Z AUTO 06003KT 10SM CLR 21/18 A3009 RMK AO2 T02060175
KJKA 210515Z AUTO 06003KT 10SM CLR 20/19 A3010 RMK AO2 T01950186
KJKA 210455Z AUTO 09003KT 10SM SCT024 SCT041 SCT049 20/19 A3010 RMK AO2 T02030192 402700161
KJKA 210435Z AUTO 00000KT 10SM BKN024 BKN033 BKN039 21/19 A3011 RMK AO2 T02080193
KJKA 210415Z AUTO 04003KT 10SM SCT027 SCT031 BKN040 21/19 A3011 RMK AO2 T02120193
KJKA 210355Z AUTO 00000KT 10SM SCT038 SCT046 SCT049 21/20 A3012 RMK AO2 T02110195
KJKA 210335Z AUTO 00000KT 10SM SCT040 SCT045 BKN049 21/20 A3012 RMK AO2 T02140198
KJKA 210315Z AUTO 05003KT 10SM SCT042 SCT049 21/20 A3012 RMK AO2 T02120201
KJKA 210255Z AUTO 00000KT 10SM BKN044 22/20 A3012 RMK AO2 T02170202
KJKA 210235Z AUTO 00000KT 10SM BKN048 21/21 A3011 RMK AO2 T02140205
KJKA 210215Z AUTO 03006KT 10SM BKN048 22/21 A3011 RMK AO2 T02170208
KJKA 210155Z AUTO 03006KT 10SM SCT048 22/21 A3010 RMK AO2 T02200210
KJKA 210135Z AUTO 10009KT 10SM BKN048 22/21 A3010 RMK AO2 T02200207
KJKA 210115Z AUTO 00000KT 10SM OVC050 23/21 A3009 RMK AO2 T02250205
KJKA 210055Z AUTO 09010KT 10SM BKN050 22/20 A3009 RMK AO2 T02180202
KJKA 210035Z AUTO 10011KT 10SM BKN050 22/20 A3009 RMK AO2 T02190201
KJKA 210015Z AUTO 09010KT 10SM CLR 22/20 A3009 RMK AO2 T02160201
KJKA 202355Z AUTO 10011KT 10SM CLR 22/20 A3009 RMK AO2 T02180200 10270 20218
KJKA 202335Z AUTO 10011KT 10SM CLR 22/20 A3009 RMK AO2 T02200197
KJKA 202315Z AUTO 09009KT 10SM CLR 23/20 A3009 RMK AO2 T02250195
KJKA 202255Z AUTO 08005KT 10SM CLR 24/19 A3008 RMK AO2 T02360193
KJKA 202235Z AUTO 10004KT 10SM CLR 25/19 A3008 RMK AO2 T02450192
KJKA 202215Z AUTO 09006KT 10SM CLR 25/20 A3008 RMK AO2 T02490195
KJKA 202155Z AUTO 11005KT 10SM CLR 25/20 A3007 RMK AO2 T02500195
KJKA 202135Z AUTO 09013G18KT 10SM CLR 25/19 A3008 RMK AO2 T02520192
KJKA 202115Z AUTO 10006KT 10SM CLR 26/19 A3008 RMK AO2 T02570194
KJKA 202055Z AUTO 12007KT 10SM CLR 25/19 A3009 RMK AO2 T02540191
KJKA 202035Z AUTO 12005KT 10SM CLR 26/19 A3009 RMK AO2 T02550191
KJKA 202015Z AUTO 11007KT 10SM CLR 26/19 A3010 RMK AO2 LTG DSNT W T02600188
KJKA 201955Z AUTO 07010G14KT 10SM CLR 26/18 A3010 RMK AO2 T02580180
KJKA 201935Z AUTO 08009G15KT 10SM CLR 27/18 A3010 RMK AO2 T02670177
KJKA 201915Z AUTO 07009G16KT 10SM CLR 27/16 A3011 RMK AO2 T02660164
KJKA 201855Z AUTO 07010G15KT 10SM CLR 26/17 A3012 RMK AO2 T02610165
KJKA 201835Z AUTO 07012KT 10SM CLR 26/16 A3012 RMK AO2 T02600160
KJKA 201815Z AUTO 07008KT 10SM CLR 27/17 A3013 RMK AO2 T02680167
KJKA 201755Z AUTO 12011G21KT 10SM CLR 27/16 A3015 RMK AO2 T02650156 10265 20163
KJKA 201735Z AUTO 07008G15KT 040V110 10SM CLR 26/17 A3015 RMK AO2 T02640169
KJKA 201715Z AUTO 07012G17KT 10SM CLR 26/17 A3016 RMK AO2 T02610171
KJKA 201655Z AUTO 08010G22KT 10SM CLR 26/17 A3017 RMK AO2 T02560170
KJKA 201635Z AUTO 08016G24KT 10SM CLR 25/18 A3018 RMK AO2 T02510181
KJKA 201615Z AUTO 08014G20KT 10SM CLR 25/19 A3018 RMK AO2 T02480185
KJKA 201555Z AUTO 07011G19KT 10SM CLR 25/19 A3018 RMK AO2 T02460190
KJKA 201535Z AUTO 08013G19KT 10SM CLR 25/19 A3018 RMK AO2 T02450191
KJKA 201515Z AUTO 08010G18KT 10SM CLR 24/19 A3019 RMK AO2 T02400190
KJKA 201455Z AUTO 07013G18KT 10SM CLR 23/19 A3020 RMK AO2 T02330188
KJKA 201435Z AUTO 06008KT 10SM CLR 22/18 A3020 RMK AO2 T02240182
KJKA 201415Z AUTO 07006KT 10SM CLR 22/18 A3020 RMK AO2 T02160179
KJKA 201355Z AUTO 07007KT 10SM CLR 21/17 A3020 RMK AO2 T02050170
KJKA 201335Z AUTO 08006KT 10SM CLR 20/17 A3019 RMK AO2 T01960167
KJKA 201315Z AUTO 05006KT 10SM CLR 19/16 A3018 RMK AO2 T01850161
KJKA 201255Z AUTO 36005KT 10SM CLR 18/16 A3018 RMK AO2 T01760157
KJKA 201235Z AUTO 34004KT 10SM CLR 17/15 A3017 RMK AO2 T01710152
KJKA 201215Z AUTO 34004KT 10SM CLR 17/15 A3017 RMK AO2 T01660150
KJKA 201155Z AUTO 31004KT 10SM CLR 16/15 A3016 RMK AO2 T01630151 10175 20161
KJKA 201135Z AUTO 33003KT 10SM CLR 16/15 A3016 RMK AO2 T01620151
KJKA 201115Z AUTO 35005KT 10SM CLR 16/15 A3015 RMK AO2 T01630152
KJKA 201055Z AUTO 35005KT 10SM CLR 17/15 A3015 RMK AO2 T01660152
KJKA 201035Z AUTO 34004KT 10SM CLR 17/15 A3015 RMK AO2 T01660153
KJKA 201015Z AUTO 31004KT 10SM CLR 17/15 A3015 RMK AO2 T01680152
KJKA 200955Z AUTO 33004KT 10SM CLR 17/15 A3015 RMK AO2 T01680153
KJKA 200935Z AUTO 02006KT 10SM CLR 17/16 A3015 RMK AO2 T01670155
KJKA 200915Z AUTO 33004KT 10SM CLR 17/16 A3015 RMK AO2 T01670155
KJKA 200855Z AUTO 32004KT 10SM CLR 17/16 A3014 RMK AO2 T01660156
KJKA 200835Z AUTO 32004KT 10SM CLR 17/16 A3015 RMK AO2 T01650157
KJKA 200815Z AUTO 32004KT 10SM CLR 17/16 A3015 RMK AO2 T01660157
KJKA 200755Z AUTO 32004KT 10SM CLR 17/16 A3015 RMK AO2 T01650157
KJKA 200735Z AUTO 30004KT 10SM CLR 17/16 A3016 RMK AO2 T01680157
KJKA 200715Z AUTO 33004KT 10SM CLR 17/16 A3016 RMK AO2 T01680156
KJKA 200655Z AUTO 36005KT 10SM CLR 17/16 A3016 RMK AO2 T01680155
KJKA 200635Z AUTO 36004KT 10SM CLR 17/15 A3017 RMK AO2 T01700153
KJKA 200615Z AUTO 34004KT 10SM CLR 17/15 A3017 RMK AO2 T01720151
KJKA 200555Z AUTO 03005KT 10SM CLR 17/15 A3016 RMK AO2 T01730152 10216 20172
KJKA 200535Z AUTO 35004KT 10SM CLR 18/15 A3017 RMK AO2 T01750151
KJKA 200515Z AUTO 35004KT 10SM CLR 18/15 A3017 RMK AO2 T01780151
KJKA 200455Z AUTO 04004KT 10SM CLR 18/15 A3017 RMK AO2 T01800150 402740147
KJKA 200435Z AUTO 03004KT 10SM CLR 18/15 A3018 RMK AO2 T01810150
KJKA 200415Z AUTO 04004KT 10SM CLR 18/15 A3018 RMK AO2 T01830150
KJKA 200355Z AUTO 03004KT 10SM CLR 19/15 A3018 RMK AO2 T01860150
KJKA 200335Z AUTO 03004KT 10SM CLR 19/15 A3018 RMK AO2 T01880150
KJKA 200315Z AUTO 04004KT 10SM CLR 19/15 A3018 RMK AO2 T01900150
KJKA 200255Z AUTO 04004KT 10SM CLR 19/15 A3018 RMK AO2 T01900152
KJKA 200235Z AUTO 03004KT 10SM CLR 19/15 A3018 RMK AO2 T01930152
KJKA 200215Z AUTO 04004KT 10SM CLR 20/15 A3018 RMK AO2 T01960153
KJKA 200155Z AUTO 04004KT 10SM CLR 20/16 A3017 RMK AO2 T01980155
KJKA 200135Z AUTO 04004KT 10SM CLR 20/16 A3017 RMK AO2 T01990156
KJKA 200115Z AUTO 03005KT 10SM CLR 20/16 A3016 RMK AO2 T02010157
KJKA 200055Z AUTO 02005KT 10SM CLR 21/16 A3016 RMK AO2 T02050161
KJKA 200035Z AUTO 02009KT 10SM CLR 21/17 A3015 RMK AO2 T02050165
KJKA 200015Z AUTO 02010KT 10SM CLR 21/17 A3015 RMK AO2 T02090165
KJKA 192355Z AUTO 02010KT 10SM CLR 22/16 A3015 RMK AO2 T02160163 10274 20216
KJKA 192335Z AUTO 03009KT 10SM CLR 22/17 A3014 RMK AO2 T02230165
KJKA 192315Z AUTO 03008KT 10SM CLR 23/16 A3014 RMK AO2 T02300164
KJKA 192255Z AUTO 03007KT 10SM CLR 24/16 A3013 RMK AO2 T02380163
KJKA 192235Z AUTO 03009KT 10SM CLR 25/16 A3013 RMK AO2 T02490163
KJKA 192215Z AUTO 03006KT 10SM CLR 26/16 A3013 RMK AO2 T02560160
KJKA 192155Z AUTO 04005KT 10SM CLR 26/15 A3013 RMK AO2 T02610153
KJKA 192135Z AUTO 02009KT 10SM CLR 26/15 A3013 RMK AO2 T02600151
KJKA 192115Z AUTO 02005G14KT 10SM SCT048 26/15 A3013 RMK AO2 T02630154
KJKA 192055Z AUTO 02008KT 10SM SCT048 27/16 A3013 RMK AO2 T02650158